Time;durP1;ratioP1;P1;durP2;ratioP2;P2;SDS_P1;SDS_P2;PMS_P1;PMS_P2;Temp;Humidity;BMP_temperature;BMP_pressure;BME280_temperature;BME280_humidity;BME280_pressure;Samples;Min_cycle;Max_cycle;Signal;HPM_P1;HPM_P2
2023/01/23 00:01:11;;;;;;;;;;;5.70;99.90;;;;;;5072170;28;20003;-66
2023/01/23 00:03:37;;;;;;;;;;;5.60;99.90;;;;;;5105052;28;19947;-66
2023/01/23 00:06:04;;;;;;;;;;;5.60;99.90;;;;;;5080542;28;20331;-66
2023/01/23 00:08:30;;;;;;;;;;;5.60;99.90;;;;;;5073574;28;19916;-64
2023/01/23 00:10:56;;;;;;;;;;;5.60;99.90;;;;;;5069629;28;20364;-66
2023/01/23 00:13:22;;;;;;;;;;;5.60;99.90;;;;;;5073012;28;19923;-64
2023/01/23 00:15:51;;;;;;;;;;;5.60;99.90;;;;;;5065570;28;19916;-65
2023/01/23 00:18:17;;;;;;;;;;;5.60;99.90;;;;;;5059586;28;19929;-65
2023/01/23 00:20:45;;;;;;;;;;;5.60;99.90;;;;;;5066807;28;20066;-64
2023/01/23 00:23:12;;;;;;;;;;;5.70;99.90;;;;;;5081464;28;20045;-66
2023/01/23 00:25:44;;;;;;;;;;;5.70;99.90;;;;;;5064502;28;19913;-64
2023/01/23 00:28:13;;;;;;;;;;;5.70;99.90;;;;;;5094681;28;19912;-66
2023/01/23 00:30:39;;;;;;;;;;;5.70;99.90;;;;;;5092059;28;19908;-66
2023/01/23 00:33:07;;;;;;;;;;;5.70;99.90;;;;;;5075554;28;19919;-68
2023/01/23 00:35:43;;;;;;;;;;;5.70;99.90;;;;;;5063394;28;19908;-66
2023/01/23 00:38:10;;;;;;;;;;;5.80;99.90;;;;;;5089544;28;20007;-63
2023/01/23 00:40:36;;;;;;;;;;;5.80;99.90;;;;;;5064881;28;19911;-64
2023/01/23 00:43:02;;;;;;;;;;;5.80;99.90;;;;;;5070083;28;19934;-66
2023/01/23 00:45:28;;;;;;;;;;;5.70;99.90;;;;;;5091151;28;19912;-64
2023/01/23 00:47:54;;;;;;;;;;;5.70;99.90;;;;;;5073495;28;19920;-67
2023/01/23 00:50:20;;;;;;;;;;;5.70;99.90;;;;;;5090484;28;19919;-66
2023/01/23 00:52:55;;;;;;;;;;;5.70;99.90;;;;;;5070700;28;19965;-65
2023/01/23 00:55:21;;;;;;;;;;;5.70;99.90;;;;;;5090199;28;19979;-65
2023/01/23 00:57:47;;;;;;;;;;;5.80;99.90;;;;;;5071467;28;19913;-65
2023/01/23 01:00:12;;;;;;;;;;;5.80;99.90;;;;;;5087174;28;19913;-65
2023/01/23 01:02:41;;;;;;;;;;;5.80;99.90;;;;;;5090698;28;19920;-67
2023/01/23 01:05:08;;;;;;;;;;;5.80;99.90;;;;;;5074370;28;19912;-67
2023/01/23 01:07:34;;;;;;;;;;;5.80;99.90;;;;;;5072256;28;20328;-64
2023/01/23 01:10:03;;;;;;;;;;;5.70;99.90;;;;;;5089173;28;19935;-66
2023/01/23 01:12:29;;;;;;;;;;;5.80;99.90;;;;;;5076735;28;20436;-66
2023/01/23 01:14:56;;;;;;;;;;;5.70;99.90;;;;;;5069900;28;20357;-65
2023/01/23 01:17:22;;;;;;;;;;;5.70;99.90;;;;;;5071739;28;19908;-67
2023/01/23 01:19:52;;;;;;;;;;;5.80;99.90;;;;;;5077717;28;19931;-65
2023/01/23 01:22:18;;;;;;;;;;;5.70;99.90;;;;;;5100933;28;19916;-65
2023/01/23 01:24:44;;;;;;;;;;;5.70;99.90;;;;;;5094156;28;19916;-65
2023/01/23 01:27:11;;;;;;;;;;;5.80;99.90;;;;;;5064611;28;19957;-65
2023/01/23 01:29:39;;;;;;;;;;;5.80;99.90;;;;;;5065438;28;20007;-65
2023/01/23 01:32:06;;;;;;;;;;;5.90;99.90;;;;;;5083337;28;19916;-62
2023/01/23 01:34:32;;;;;;;;;;;5.80;99.90;;;;;;5076300;28;19912;-64
2023/01/23 01:36:58;;;;;;;;;;;5.80;99.90;;;;;;5060803;28;19932;-65
2023/01/23 01:39:24;;;;;;;;;;;5.80;99.90;;;;;;5075724;28;20008;-66
2023/01/23 01:41:50;;;;;;;;;;;5.90;99.90;;;;;;5070047;28;19999;-65
2023/01/23 01:44:17;;;;;;;;;;;5.90;99.90;;;;;;5089780;28;19912;-64
2023/01/23 01:46:47;;;;;;;;;;;5.90;99.90;;;;;;5086750;28;20011;-65
2023/01/23 01:49:19;;;;;;;;;;;5.80;99.90;;;;;;5050257;28;19932;-63
2023/01/23 01:51:51;;;;;;;;;;;5.90;99.90;;;;;;5080020;28;19916;-65
2023/01/23 01:54:27;;;;;;;;;;;5.90;99.90;;;;;;5075490;28;19912;-64
2023/01/23 01:57:08;;;;;;;;;;;5.90;99.90;;;;;;5073387;28;19912;-64
2023/01/23 01:59:37;;;;;;;;;;;5.90;99.90;;;;;;5065267;28;19935;-66
2023/01/23 02:02:11;;;;;;;;;;;6.00;99.90;;;;;;5085190;28;19908;-64
2023/01/23 02:04:41;;;;;;;;;;;6.00;99.90;;;;;;5095887;28;19920;-66
2023/01/23 02:07:21;;;;;;;;;;;5.90;99.90;;;;;;5071236;28;19948;-64
2023/01/23 02:09:51;;;;;;;;;;;5.90;99.90;;;;;;5091220;28;19942;-65
2023/01/23 02:12:17;;;;;;;;;;;5.90;99.90;;;;;;5093277;28;19912;-64
2023/01/23 02:14:43;;;;;;;;;;;5.90;99.90;;;;;;5070140;28;19978;-65
2023/01/23 02:17:09;;;;;;;;;;;6.00;99.90;;;;;;5055178;28;19926;-65
2023/01/23 02:19:48;;;;;;;;;;;6.00;99.90;;;;;;5083146;28;19973;-64
2023/01/23 02:22:36;;;;;;;;;;;6.00;99.90;;;;;;5070024;28;19919;-66
2023/01/23 02:25:07;;;;;;;;;;;6.00;99.90;;;;;;5066985;28;19919;-63
2023/01/23 02:27:38;;;;;;;;;;;6.10;99.90;;;;;;5069024;28;20006;-64
2023/01/23 02:30:07;;;;;;;;;;;6.10;99.90;;;;;;5092959;28;19912;-63
2023/01/23 02:32:34;;;;;;;;;;;6.20;99.90;;;;;;5087571;28;19922;-64
2023/01/23 02:35:07;;;;;;;;;;;6.20;99.90;;;;;;5091587;28;19924;-65
2023/01/23 02:37:53;;;;;;;;;;;6.20;99.90;;;;;;5074435;28;19958;-64
2023/01/23 02:40:28;;;;;;;;;;;6.30;99.90;;;;;;5062581;28;19912;-65
2023/01/23 02:42:55;;;;;;;;;;;6.30;99.90;;;;;;5088734;28;20073;-64
2023/01/23 02:45:24;;;;;;;;;;;6.30;99.90;;;;;;5074170;28;20006;-64
2023/01/23 02:47:50;;;;;;;;;;;6.30;99.90;;;;;;5080081;28;19912;-65
2023/01/23 02:50:16;;;;;;;;;;;6.40;99.90;;;;;;5103032;28;19911;-64
2023/01/23 02:52:44;;;;;;;;;;;6.30;99.90;;;;;;5103625;28;20014;-65
2023/01/23 02:55:17;;;;;;;;;;;6.30;99.90;;;;;;5087484;28;19932;-65
2023/01/23 02:57:44;;;;;;;;;;;6.30;99.90;;;;;;5076359;28;19919;-64
2023/01/23 03:00:19;;;;;;;;;;;6.30;99.90;;;;;;5091555;28;19912;-65
2023/01/23 03:02:48;;;;;;;;;;;6.30;99.90;;;;;;5097405;28;19919;-64
2023/01/23 03:05:17;;;;;;;;;;;6.30;99.90;;;;;;5071716;28;19912;-67
2023/01/23 03:07:43;;;;;;;;;;;6.20;99.90;;;;;;5072672;28;19916;-65
2023/01/23 03:10:09;;;;;;;;;;;6.20;99.90;;;;;;5089243;28;19998;-63
2023/01/23 03:12:42;;;;;;;;;;;6.20;99.90;;;;;;5077621;28;19937;-65
2023/01/23 03:15:08;;;;;;;;;;;6.30;99.90;;;;;;5075482;28;19938;-65
2023/01/23 03:17:35;;;;;;;;;;;6.20;99.90;;;;;;5076395;28;20548;-64
2023/01/23 03:20:03;;;;;;;;;;;6.20;99.90;;;;;;5076251;28;19919;-63
2023/01/23 03:22:28;;;;;;;;;;;6.20;99.90;;;;;;5072915;28;20058;-66
2023/01/23 03:24:56;;;;;;;;;;;6.20;99.90;;;;;;5098294;28;19962;-66
2023/01/23 03:27:25;;;;;;;;;;;6.30;99.90;;;;;;5072004;28;19919;-67
2023/01/23 03:32:37;;;;;;;;;;;6.30;99.90;;;;;;5099875;28;20060;-65
2023/01/23 03:35:09;;;;;;;;;;;6.30;99.90;;;;;;5080457;28;19912;-64
2023/01/23 03:37:35;;;;;;;;;;;6.30;99.90;;;;;;5099813;28;21376;-65
2023/01/23 03:42:45;;;;;;;;;;;6.30;99.90;;;;;;5076295;28;21486;-64
2023/01/23 03:45:12;;;;;;;;;;;6.30;99.90;;;;;;5062715;28;19996;-65
2023/01/23 03:47:38;;;;;;;;;;;6.30;99.90;;;;;;5084614;28;19978;-65
2023/01/23 03:50:07;;;;;;;;;;;6.20;99.90;;;;;;5072816;28;19912;-65
2023/01/23 03:52:33;;;;;;;;;;;6.20;99.90;;;;;;5064359;28;20431;-65
2023/01/23 03:55:06;;;;;;;;;;;6.20;99.90;;;;;;5061356;28;20367;-65
2023/01/23 03:57:33;;;;;;;;;;;6.10;99.90;;;;;;5080986;28;20357;-65
2023/01/23 04:00:00;;;;;;;;;;;6.10;99.90;;;;;;5075107;28;20312;-65
2023/01/23 04:02:29;;;;;;;;;;;6.10;99.90;;;;;;5069454;28;20374;-64
2023/01/23 04:04:55;;;;;;;;;;;6.20;99.90;;;;;;5077052;28;19912;-64
2023/01/23 04:07:21;;;;;;;;;;;6.20;99.90;;;;;;5080218;28;19924;-65
2023/01/23 04:09:49;;;;;;;;;;;6.20;99.90;;;;;;5067300;28;19980;-65
2023/01/23 04:12:16;;;;;;;;;;;6.20;99.90;;;;;;5073664;28;20382;-65
2023/01/23 04:14:44;;;;;;;;;;;6.20;99.90;;;;;;5071227;28;20386;-63
2023/01/23 04:17:10;;;;;;;;;;;6.20;99.90;;;;;;5069233;28;21894;-63
2023/01/23 04:19:39;;;;;;;;;;;6.30;99.90;;;;;;5062725;28;20369;-63
2023/01/23 04:22:05;;;;;;;;;;;6.20;99.90;;;;;;5076648;28;20362;-65
2023/01/23 04:24:31;;;;;;;;;;;6.20;99.90;;;;;;5065059;28;19987;-64
2023/01/23 04:27:03;;;;;;;;;;;6.10;99.90;;;;;;5074690;28;20363;-64
2023/01/23 04:29:29;;;;;;;;;;;6.10;99.90;;;;;;5090683;28;20356;-64
2023/01/23 04:31:55;;;;;;;;;;;6.10;99.90;;;;;;5098662;28;20058;-62
2023/01/23 04:34:21;;;;;;;;;;;6.10;99.90;;;;;;5074931;28;19916;-63
2023/01/23 04:36:49;;;;;;;;;;;6.10;99.90;;;;;;5061810;28;20501;-65
2023/01/23 04:39:19;;;;;;;;;;;6.10;99.90;;;;;;5088811;28;20388;-64
2023/01/23 04:41:46;;;;;;;;;;;6.10;99.90;;;;;;5074234;28;20372;-66
2023/01/23 04:44:26;;;;;;;;;;;6.10;99.90;;;;;;5084536;28;20312;-66
2023/01/23 04:46:53;;;;;;;;;;;6.20;99.90;;;;;;5082362;28;19912;-65
2023/01/23 04:49:19;;;;;;;;;;;6.20;99.90;;;;;;5090095;28;20393;-66
2023/01/23 04:51:48;;;;;;;;;;;6.20;99.90;;;;;;5077362;28;19916;-66
2023/01/23 04:54:15;;;;;;;;;;;6.30;99.90;;;;;;5070855;28;19924;-65
2023/01/23 04:56:41;;;;;;;;;;;6.40;99.90;;;;;;5067700;28;19916;-65
2023/01/23 04:59:07;;;;;;;;;;;6.40;99.90;;;;;;5093589;28;19919;-64
2023/01/23 05:01:33;;;;;;;;;;;6.40;99.90;;;;;;5088183;28;19919;-64
2023/01/23 05:03:59;;;;;;;;;;;6.50;99.90;;;;;;5107570;28;20374;-65
2023/01/23 05:06:24;;;;;;;;;;;6.50;99.90;;;;;;5101033;28;19912;-65
2023/01/23 05:08:50;;;;;;;;;;;6.50;99.90;;;;;;5103901;28;19916;-65
2023/01/23 05:11:16;;;;;;;;;;;6.50;99.90;;;;;;5095642;28;19966;-65
2023/01/23 05:13:43;;;;;;;;;;;6.40;99.90;;;;;;5089018;28;20288;-65
2023/01/23 05:16:09;;;;;;;;;;;6.40;99.90;;;;;;5093698;28;19912;-66
2023/01/23 05:18:35;;;;;;;;;;;6.40;99.90;;;;;;5097395;28;19916;-66
2023/01/23 05:21:00;;;;;;;;;;;6.50;99.90;;;;;;5096310;28;19912;-66
2023/01/23 05:23:26;;;;;;;;;;;6.50;99.90;;;;;;5091044;28;20017;-65
2023/01/23 05:25:51;;;;;;;;;;;6.40;99.90;;;;;;5067021;28;20240;-65
2023/01/23 05:28:17;;;;;;;;;;;6.40;99.90;;;;;;5084529;28;19966;-65
2023/01/23 05:30:43;;;;;;;;;;;6.40;99.90;;;;;;5090599;28;19920;-65
2023/01/23 05:33:08;;;;;;;;;;;6.40;99.90;;;;;;5075533;28;19947;-64
2023/01/23 05:35:37;;;;;;;;;;;6.40;99.90;;;;;;5092121;28;19953;-64
2023/01/23 05:38:06;;;;;;;;;;;6.40;99.90;;;;;;5081923;28;19919;-65
2023/01/23 05:40:32;;;;;;;;;;;6.40;99.90;;;;;;5084626;28;20472;-66
2023/01/23 05:42:57;;;;;;;;;;;6.50;99.90;;;;;;5079333;28;19924;-65
2023/01/23 05:45:23;;;;;;;;;;;6.40;99.90;;;;;;5096034;28;20545;-67
2023/01/23 05:47:48;;;;;;;;;;;6.40;99.90;;;;;;5101463;28;20537;-65
2023/01/23 05:50:18;;;;;;;;;;;6.40;99.90;;;;;;5092364;28;20030;-65
2023/01/23 05:52:47;;;;;;;;;;;6.40;99.90;;;;;;5088450;28;20247;-66
2023/01/23 05:55:13;;;;;;;;;;;6.40;99.90;;;;;;5071323;28;20020;-64
2023/01/23 05:57:39;;;;;;;;;;;6.40;99.90;;;;;;5079064;28;19980;-66
2023/01/23 06:00:05;;;;;;;;;;;6.40;99.90;;;;;;5078626;28;19927;-65
2023/01/23 06:02:32;;;;;;;;;;;6.40;99.90;;;;;;5077869;28;19912;-65
2023/01/23 06:04:58;;;;;;;;;;;6.40;99.90;;;;;;5104512;28;20379;-64
2023/01/23 06:07:24;;;;;;;;;;;6.40;99.90;;;;;;5098889;28;20006;-66
2023/01/23 06:09:49;;;;;;;;;;;6.40;99.90;;;;;;5069754;28;19912;-66
2023/01/23 06:12:15;;;;;;;;;;;6.40;99.90;;;;;;5088371;28;19962;-64
2023/01/23 06:14:40;;;;;;;;;;;6.40;99.90;;;;;;5098325;28;19920;-63
2023/01/23 06:17:06;;;;;;;;;;;6.40;99.90;;;;;;5086668;28;19967;-64
2023/01/23 06:19:32;;;;;;;;;;;6.40;99.90;;;;;;5075404;28;19912;-65
2023/01/23 06:21:58;;;;;;;;;;;6.50;99.90;;;;;;5110108;28;20358;-64
2023/01/23 06:24:23;;;;;;;;;;;6.50;99.90;;;;;;5079736;28;19912;-66
2023/01/23 06:26:49;;;;;;;;;;;6.60;99.90;;;;;;5071774;28;19966;-64
2023/01/23 06:29:15;;;;;;;;;;;6.60;99.90;;;;;;5072177;28;19912;-63
2023/01/23 06:31:41;;;;;;;;;;;6.60;99.90;;;;;;5094792;28;20380;-65
2023/01/23 06:34:06;;;;;;;;;;;6.70;99.90;;;;;;5087147;28;20026;-64
2023/01/23 06:36:32;;;;;;;;;;;6.60;99.90;;;;;;5093410;28;19955;-63
2023/01/23 06:38:58;;;;;;;;;;;6.60;99.90;;;;;;5092780;28;19919;-64
2023/01/23 06:41:24;;;;;;;;;;;6.50;99.90;;;;;;5093417;28;19908;-65
2023/01/23 06:43:50;;;;;;;;;;;6.40;99.90;;;;;;5076623;28;20026;-65
2023/01/23 06:46:15;;;;;;;;;;;6.40;99.90;;;;;;5090651;28;19913;-63
2023/01/23 06:48:41;;;;;;;;;;;6.40;99.90;;;;;;5089974;28;19931;-66
2023/01/23 06:51:06;;;;;;;;;;;6.40;99.90;;;;;;5101719;28;20176;-64
2023/01/23 06:53:32;;;;;;;;;;;6.30;99.90;;;;;;5088797;28;19918;-64
2023/01/23 06:55:59;;;;;;;;;;;6.30;99.90;;;;;;5103195;28;19957;-64
2023/01/23 06:58:24;;;;;;;;;;;6.30;99.90;;;;;;5091819;28;19919;-62
2023/01/23 07:00:50;;;;;;;;;;;6.30;99.90;;;;;;5100452;28;19916;-65
2023/01/23 07:03:15;;;;;;;;;;;6.30;99.90;;;;;;5102782;28;20369;-65
2023/01/23 07:05:42;;;;;;;;;;;6.40;99.90;;;;;;5082250;28;20014;-62
2023/01/23 07:08:08;;;;;;;;;;;6.30;99.90;;;;;;5102065;28;19920;-65
2023/01/23 07:10:36;;;;;;;;;;;6.30;99.90;;;;;;5067862;28;19918;-65
2023/01/23 07:13:06;;;;;;;;;;;6.30;99.90;;;;;;5068408;28;19945;-60
2023/01/23 07:15:32;;;;;;;;;;;6.20;99.90;;;;;;5108675;28;20002;-62
2023/01/23 07:17:58;;;;;;;;;;;6.20;99.90;;;;;;5083501;28;19916;-61
2023/01/23 07:20:26;;;;;;;;;;;6.20;99.90;;;;;;5095686;28;20460;-62
2023/01/23 07:22:53;;;;;;;;;;;6.10;99.90;;;;;;5084397;28;19923;-61
2023/01/23 07:25:18;;;;;;;;;;;6.20;99.90;;;;;;5091704;28;20012;-61
2023/01/23 07:27:44;;;;;;;;;;;6.10;99.90;;;;;;5083254;28;20006;-60
2023/01/23 07:30:10;;;;;;;;;;;6.10;99.90;;;;;;5096964;28;19974;-60
2023/01/23 07:32:35;;;;;;;;;;;6.20;99.90;;;;;;5084363;28;19915;-61
2023/01/23 07:35:01;;;;;;;;;;;6.30;99.90;;;;;;5105165;28;19912;-59
2023/01/23 07:37:27;;;;;;;;;;;6.30;99.90;;;;;;5074534;28;19922;-63
2023/01/23 07:39:52;;;;;;;;;;;6.30;99.90;;;;;;5096507;28;19976;-61
2023/01/23 07:42:18;;;;;;;;;;;6.20;99.90;;;;;;5094353;28;19916;-59
2023/01/23 07:44:43;;;;;;;;;;;6.20;99.90;;;;;;5094687;28;19911;-59
2023/01/23 07:47:09;;;;;;;;;;;6.10;99.90;;;;;;5090528;28;19912;-63
2023/01/23 07:49:35;;;;;;;;;;;6.00;99.90;;;;;;5090650;28;19916;-62
2023/01/23 07:52:00;;;;;;;;;;;6.00;99.90;;;;;;5082494;28;19943;-62
2023/01/23 07:54:26;;;;;;;;;;;5.90;99.90;;;;;;5088215;28;19916;-61
2023/01/23 07:56:51;;;;;;;;;;;5.80;99.90;;;;;;5104047;28;20154;-61
2023/01/23 07:59:17;;;;;;;;;;;5.80;99.90;;;;;;5069152;28;19915;-60
2023/01/23 08:01:42;;;;;;;;;;;5.80;99.90;;;;;;5081273;28;19912;-60
2023/01/23 08:04:08;;;;;;;;;;;5.90;99.90;;;;;;5080937;28;19912;-59
2023/01/23 08:06:34;;;;;;;;;;;5.90;99.90;;;;;;5099572;28;19912;-58
2023/01/23 08:08:59;;;;;;;;;;;6.00;99.90;;;;;;5091591;28;20006;-60
2023/01/23 08:11:25;;;;;;;;;;;6.00;99.90;;;;;;5081465;28;19979;-62
2023/01/23 08:13:51;;;;;;;;;;;6.00;99.90;;;;;;5097130;28;19912;-61
2023/01/23 08:16:17;;;;;;;;;;;6.00;99.90;;;;;;5081961;28;19940;-59
2023/01/23 08:18:42;;;;;;;;;;;6.00;99.90;;;;;;5094767;28;19950;-61
2023/01/23 08:21:08;;;;;;;;;;;6.10;99.90;;;;;;5083900;28;19974;-57
2023/01/23 08:23:34;;;;;;;;;;;6.10;99.90;;;;;;5101413;28;19999;-62
2023/01/23 08:26:01;;;;;;;;;;;6.20;99.90;;;;;;5092639;28;19958;-63
2023/01/23 08:28:27;;;;;;;;;;;6.20;99.90;;;;;;5070274;28;19916;-61
2023/01/23 08:30:53;;;;;;;;;;;6.20;99.90;;;;;;5064313;28;20008;-60
2023/01/23 08:33:19;;;;;;;;;;;6.30;99.90;;;;;;5106312;28;20262;-60
2023/01/23 08:35:55;;;;;;;;;;;6.40;99.90;;;;;;5111548;28;19908;-60
2023/01/23 08:38:21;;;;;;;;;;;6.40;99.90;;;;;;5092395;28;19962;-63
2023/01/23 08:40:47;;;;;;;;;;;6.40;99.90;;;;;;5075655;28;19947;-64
2023/01/23 08:43:13;;;;;;;;;;;6.50;99.90;;;;;;5073277;28;19912;-62
2023/01/23 08:45:44;;;;;;;;;;;6.50;99.90;;;;;;5085892;28;19912;-63
2023/01/23 08:48:11;;;;;;;;;;;6.50;99.90;;;;;;5077736;28;20382;-59
2023/01/23 08:50:36;;;;;;;;;;;6.60;99.90;;;;;;5070064;28;19937;-61
2023/01/23 08:53:02;;;;;;;;;;;6.70;99.90;;;;;;5082608;28;20495;-61
2023/01/23 08:55:28;;;;;;;;;;;6.90;99.90;;;;;;5083944;28;19919;-61
2023/01/23 08:57:54;;;;;;;;;;;6.90;99.90;;;;;;5097893;28;19912;-61
2023/01/23 09:00:19;;;;;;;;;;;7.00;99.90;;;;;;5091193;28;19931;-61
2023/01/23 09:02:45;;;;;;;;;;;7.00;99.90;;;;;;5088514;28;19912;-61
2023/01/23 09:05:11;;;;;;;;;;;6.90;99.90;;;;;;5088138;28;20023;-59
2023/01/23 09:07:36;;;;;;;;;;;6.80;99.90;;;;;;5091359;28;19977;-61
2023/01/23 09:10:05;;;;;;;;;;;6.70;99.90;;;;;;5068460;28;19916;-62
2023/01/23 09:12:31;;;;;;;;;;;6.70;99.90;;;;;;5088458;28;19916;-61
2023/01/23 09:14:57;;;;;;;;;;;6.70;99.90;;;;;;5103235;28;20259;-63
2023/01/23 09:17:23;;;;;;;;;;;6.80;99.90;;;;;;5098528;28;19916;-61
2023/01/23 09:19:48;;;;;;;;;;;6.90;99.90;;;;;;5078123;28;19965;-62
2023/01/23 09:22:15;;;;;;;;;;;6.90;99.90;;;;;;5102209;28;19912;-61
2023/01/23 09:24:40;;;;;;;;;;;7.00;99.90;;;;;;5099963;28;19931;-62
2023/01/23 09:27:06;;;;;;;;;;;7.10;99.90;;;;;;5102227;28;19953;-62
2023/01/23 09:29:31;;;;;;;;;;;7.10;99.90;;;;;;5095368;28;19912;-60
2023/01/23 09:32:06;;;;;;;;;;;7.20;99.90;;;;;;5099033;28;19943;-61
2023/01/23 09:34:34;;;;;;;;;;;7.20;99.90;;;;;;5087628;28;19957;-62
2023/01/23 09:36:59;;;;;;;;;;;7.30;99.90;;;;;;5087055;28;19919;-63
2023/01/23 09:39:25;;;;;;;;;;;7.40;99.90;;;;;;5098078;28;19919;-63
2023/01/23 09:41:50;;;;;;;;;;;7.50;99.90;;;;;;5092965;28;19958;-62
2023/01/23 09:44:32;;;;;;;;;;;7.50;99.90;;;;;;5092645;28;20353;-59
2023/01/23 09:47:03;;;;;;;;;;;7.60;99.90;;;;;;5087969;28;20007;-64
2023/01/23 09:49:40;;;;;;;;;;;7.70;99.90;;;;;;5100385;28;19915;-63
2023/01/23 09:52:11;;;;;;;;;;;7.70;99.90;;;;;;5106583;28;19915;-63
2023/01/23 09:54:37;;;;;;;;;;;7.80;99.90;;;;;;5089193;28;19915;-62
2023/01/23 09:57:05;;;;;;;;;;;7.80;99.90;;;;;;5096211;28;20289;-62
2023/01/23 09:59:30;;;;;;;;;;;7.80;99.90;;;;;;5108821;28;20489;-61
2023/01/23 10:01:56;;;;;;;;;;;7.80;99.90;;;;;;5106946;28;20082;-61
2023/01/23 10:04:22;;;;;;;;;;;7.80;99.90;;;;;;5094365;28;20330;-62
2023/01/23 10:06:47;;;;;;;;;;;7.90;99.90;;;;;;5093951;28;19923;-61
2023/01/23 10:09:25;;;;;;;;;;;8.00;99.90;;;;;;5090400;28;19916;-62
2023/01/23 10:11:51;;;;;;;;;;;8.00;99.90;;;;;;5088679;28;20010;-62
2023/01/23 10:14:38;;;;;;;;;;;8.00;99.90;;;;;;5089218;28;19948;-58
2023/01/23 10:17:06;;;;;;;;;;;8.10;99.90;;;;;;5110007;28;20006;-62
2023/01/23 10:19:37;;;;;;;;;;;8.00;99.90;;;;;;5100667;28;20007;-56
2023/01/23 10:22:09;;;;;;;;;;;8.00;99.90;;;;;;5085955;28;19908;-56
2023/01/23 10:24:41;;;;;;;;;;;8.00;99.90;;;;;;5084272;28;19916;-59
2023/01/23 10:27:33;;;;;;;;;;;8.00;99.90;;;;;;5101592;28;20138;-56
2023/01/23 10:30:00;;;;;;;;;;;8.00;99.90;;;;;;5076541;28;19959;-58
2023/01/23 10:32:27;;;;;;;;;;;8.00;99.90;;;;;;5089583;28;19927;-56
2023/01/23 10:35:06;;;;;;;;;;;8.00;99.90;;;;;;5087112;28;20327;-59
2023/01/23 10:37:32;;;;;;;;;;;7.90;99.90;;;;;;5101109;28;19994;-59
2023/01/23 10:41:12;;;;;;;;;;;8.00;99.90;;;;;;5092657;28;19951;-59
2023/01/23 10:43:07;;;;;;;;;;;8.00;99.90;;;;;;5092058;28;19913;-59
2023/01/23 10:45:32;;;;;;;;;;;8.00;99.90;;;;;;5087745;28;19955;-60
2023/01/23 10:47:58;;;;;;;;;;;8.00;99.90;;;;;;5110191;28;19947;-58
2023/01/23 10:50:34;;;;;;;;;;;8.00;99.90;;;;;;5110329;28;19908;-57
2023/01/23 10:53:08;;;;;;;;;;;8.00;99.90;;;;;;5087472;28;19922;-57
2023/01/23 10:55:33;;;;;;;;;;;8.10;99.90;;;;;;5106289;28;19907;-55
2023/01/23 10:58:02;;;;;;;;;;;8.00;99.90;;;;;;5087767;28;19955;-60
2023/01/23 11:00:31;;;;;;;;;;;8.10;99.90;;;;;;5109226;28;20021;-57
2023/01/23 11:03:16;;;;;;;;;;;8.10;99.90;;;;;;5078367;28;19967;-60
2023/01/23 11:05:44;;;;;;;;;;;8.10;99.90;;;;;;5096277;28;20015;-58
2023/01/23 11:08:28;;;;;;;;;;;8.20;99.90;;;;;;5110054;28;19916;-58
2023/01/23 11:11:10;;;;;;;;;;;8.20;99.90;;;;;;5099454;28;19913;-56
2023/01/23 11:13:36;;;;;;;;;;;8.20;99.90;;;;;;5084574;28;19912;-57
2023/01/23 11:16:01;;;;;;;;;;;8.20;99.90;;;;;;5113255;28;19907;-56
2023/01/23 11:18:32;;;;;;;;;;;8.10;99.90;;;;;;5095704;28;20357;-57
2023/01/23 11:20:57;;;;;;;;;;;8.10;99.90;;;;;;5095245;28;20361;-57
2023/01/23 11:23:23;;;;;;;;;;;8.10;99.90;;;;;;5105595;28;19938;-61
2023/01/23 11:25:50;;;;;;;;;;;8.20;99.90;;;;;;5106553;28;20002;-59
2023/01/23 11:28:16;;;;;;;;;;;8.20;99.90;;;;;;5093331;28;19912;-59
2023/01/23 11:30:45;;;;;;;;;;;8.20;99.90;;;;;;5092336;28;19916;-58
2023/01/23 11:33:12;;;;;;;;;;;8.20;99.90;;;;;;5071141;28;20385;-57
2023/01/23 11:35:41;;;;;;;;;;;8.30;99.90;;;;;;5112391;28;19924;-59
2023/01/23 11:38:10;;;;;;;;;;;8.30;99.90;;;;;;5094687;28;19951;-53
2023/01/23 11:40:36;;;;;;;;;;;8.40;99.90;;;;;;5077739;28;19920;-57
2023/01/23 11:43:01;;;;;;;;;;;8.40;99.90;;;;;;5091196;28;20109;-58
2023/01/23 11:45:34;;;;;;;;;;;8.30;99.90;;;;;;5111652;28;20383;-59
2023/01/23 11:48:19;;;;;;;;;;;8.30;99.90;;;;;;5112491;28;19953;-57
2023/01/23 11:51:03;;;;;;;;;;;8.30;99.90;;;;;;5101716;28;20290;-58
2023/01/23 11:53:28;;;;;;;;;;;8.30;99.90;;;;;;5093220;28;19912;-56
2023/01/23 11:55:54;;;;;;;;;;;8.30;99.90;;;;;;5100985;28;19919;-59
2023/01/23 11:58:22;;;;;;;;;;;8.30;99.90;;;;;;5102707;28;19919;-58
2023/01/23 12:01:06;;;;;;;;;;;8.30;99.90;;;;;;5113147;28;19919;-59
2023/01/23 12:03:32;;;;;;;;;;;8.40;99.90;;;;;;5113517;28;19998;-57
2023/01/23 12:06:16;;;;;;;;;;;8.40;99.90;;;;;;5113729;28;20459;-58
2023/01/23 12:09:02;;;;;;;;;;;8.40;99.90;;;;;;5099109;28;20375;-55
2023/01/23 12:11:35;;;;;;;;;;;8.40;99.90;;;;;;5091927;28;19920;-59
2023/01/23 12:14:12;;;;;;;;;;;8.40;99.90;;;;;;5098606;28;19912;-55
2023/01/23 12:16:44;;;;;;;;;;;8.30;99.90;;;;;;5097609;28;19915;-58
2023/01/23 12:19:15;;;;;;;;;;;8.30;99.90;;;;;;5112611;28;20242;-60
2023/01/23 12:21:53;;;;;;;;;;;8.30;99.90;;;;;;5094472;28;19968;-61
2023/01/23 12:24:25;;;;;;;;;;;8.30;99.90;;;;;;5095935;28;19912;-59
2023/01/23 12:27:05;;;;;;;;;;;8.30;99.90;;;;;;5096894;28;19912;-57
2023/01/23 12:29:49;;;;;;;;;;;8.40;99.90;;;;;;5099911;28;19909;-56
2023/01/23 12:32:24;;;;;;;;;;;8.40;99.90;;;;;;5092162;28;19964;-52
2023/01/23 12:35:01;;;;;;;;;;;8.40;99.90;;;;;;5098497;28;20074;-56
2023/01/23 12:37:33;;;;;;;;;;;8.30;99.90;;;;;;5093078;28;19908;-56
2023/01/23 12:39:59;;;;;;;;;;;8.30;99.90;;;;;;5094470;28;20102;-58
2023/01/23 12:42:25;;;;;;;;;;;8.40;99.90;;;;;;5095583;28;19992;-57
2023/01/23 12:44:58;;;;;;;;;;;8.30;99.90;;;;;;5084571;28;19935;-54
2023/01/23 12:47:27;;;;;;;;;;;8.30;99.90;;;;;;5107802;28;19938;-56
2023/01/23 12:50:01;;;;;;;;;;;8.20;99.90;;;;;;5093658;28;19915;-59
2023/01/23 12:52:27;;;;;;;;;;;8.20;99.90;;;;;;5078157;28;19925;-57
2023/01/23 12:55:11;;;;;;;;;;;8.20;99.90;;;;;;5086169;28;19918;-59
2023/01/23 12:57:42;;;;;;;;;;;8.20;99.90;;;;;;5085200;28;19915;-57
2023/01/23 13:00:17;;;;;;;;;;;8.20;99.90;;;;;;5106629;28;19915;-59
2023/01/23 13:03:05;;;;;;;;;;;8.20;99.90;;;;;;5069693;28;19937;-60
2023/01/23 13:05:54;;;;;;;;;;;8.30;99.90;;;;;;5099718;28;19915;-57
2023/01/23 13:08:35;;;;;;;;;;;8.30;99.90;;;;;;5109049;28;19947;-58
2023/01/23 13:13:49;;;;;;;;;;;8.20;99.90;;;;;;5104763;28;19915;-58
2023/01/23 13:16:16;;;;;;;;;;;8.20;99.90;;;;;;5107257;28;19912;-59
2023/01/23 13:27:26;;;;;;;;;;;8.40;99.90;;;;;;5094130;28;19961;-57
2023/01/23 13:29:52;;;;;;;;;;;8.40;99.90;;;;;;5098401;28;20020;-57
2023/01/23 13:32:21;;;;;;;;;;;8.40;99.90;;;;;;5110894;28;19938;-58
2023/01/23 13:34:47;;;;;;;;;;;8.40;99.90;;;;;;5104450;28;19916;-62
2023/01/23 13:37:25;;;;;;;;;;;8.40;99.90;;;;;;5099516;28;19920;-60
2023/01/23 13:40:01;;;;;;;;;;;8.40;99.90;;;;;;5080367;28;19912;-59
2023/01/23 13:42:27;;;;;;;;;;;8.40;99.90;;;;;;5107540;28;19922;-61
2023/01/23 13:45:11;;;;;;;;;;;8.40;99.90;;;;;;5091022;28;20333;-59
2023/01/23 13:50:26;;;;;;;;;;;8.50;99.90;;;;;;5094936;28;20024;-57
2023/01/23 13:58:27;;;;;;;;;;;8.40;99.90;;;;;;5096731;28;19996;-59
2023/01/23 14:06:35;;;;;;;;;;;8.40;99.90;;;;;;5106319;28;19919;-61
2023/01/23 14:09:02;;;;;;;;;;;8.30;99.90;;;;;;5111100;28;19922;-58
2023/01/23 14:11:36;;;;;;;;;;;8.30;99.90;;;;;;5092846;28;20231;-60
2023/01/23 14:16:46;;;;;;;;;;;8.20;99.90;;;;;;5102095;28;20488;-60
2023/01/23 14:19:24;;;;;;;;;;;8.10;99.90;;;;;;5093258;28;20173;-60
2023/01/23 14:21:53;;;;;;;;;;;8.20;99.90;;;;;;5090847;28;19908;-61
2023/01/23 14:24:23;;;;;;;;;;;8.10;99.90;;;;;;5090728;28;19919;-56
2023/01/23 14:26:51;;;;;;;;;;;8.10;99.90;;;;;;5071815;28;19909;-56
2023/01/23 14:29:21;;;;;;;;;;;8.10;99.90;;;;;;5079641;28;20378;-60
2023/01/23 14:31:47;;;;;;;;;;;8.10;99.90;;;;;;5062008;28;19916;-60
2023/01/23 14:34:16;;;;;;;;;;;8.10;99.90;;;;;;5089592;28;20353;-60
2023/01/23 14:36:44;;;;;;;;;;;8.10;99.90;;;;;;5071532;28;19920;-58
2023/01/23 14:39:15;;;;;;;;;;;8.10;99.90;;;;;;5087739;28;20377;-59
2023/01/23 14:41:41;;;;;;;;;;;8.10;99.90;;;;;;5091567;28;19908;-61
2023/01/23 14:44:14;;;;;;;;;;;8.20;99.90;;;;;;5110190;28;19960;-58
2023/01/23 14:46:40;;;;;;;;;;;8.20;99.90;;;;;;5079166;28;19997;-59
2023/01/23 14:49:07;;;;;;;;;;;8.20;99.90;;;;;;5065990;28;20011;-58
2023/01/23 14:51:32;;;;;;;;;;;8.10;99.90;;;;;;5094245;28;19912;-57
2023/01/23 14:53:59;;;;;;;;;;;8.10;99.90;;;;;;5076494;28;20118;-60
2023/01/23 14:56:32;;;;;;;;;;;8.10;99.90;;;;;;5079902;28;19919;-60
2023/01/23 14:59:00;;;;;;;;;;;8.10;99.90;;;;;;5106187;28;19912;-57
2023/01/23 15:01:26;;;;;;;;;;;8.00;99.90;;;;;;5095815;28;20186;-58
2023/01/23 15:03:55;;;;;;;;;;;8.00;99.90;;;;;;5095619;28;19959;-64
2023/01/23 15:06:21;;;;;;;;;;;8.00;99.90;;;;;;5074839;28;19999;-61
2023/01/23 15:08:47;;;;;;;;;;;8.00;99.90;;;;;;5090393;28;19920;-62
2023/01/23 15:11:13;;;;;;;;;;;8.00;99.90;;;;;;5091550;28;20389;-62
2023/01/23 15:13:49;;;;;;;;;;;8.00;99.90;;;;;;5092947;28;19931;-64